sensor_id;sensor_type;location;lat;lon;timestamp;pressure;altitude;pressure_sealevel;temperature;humidity
54600;BME280;40500;51.084;16.958;2022-10-16T00:00:26;100263.55;;;13.25;84.43
54600;BME280;40500;51.084;16.958;2022-10-16T00:02:57;100267.91;;;13.26;84.69
54600;BME280;40500;51.084;16.958;2022-10-16T00:05:27;100266.48;;;13.28;84.65
54600;BME280;40500;51.084;16.958;2022-10-16T00:07:57;100269.08;;;13.29;84.69
54600;BME280;40500;51.084;16.958;2022-10-16T00:10:28;100269.60;;;13.30;84.75
54600;BME280;40500;51.084;16.958;2022-10-16T00:12:58;100270.11;;;13.30;84.85
54600;BME280;40500;51.084;16.958;2022-10-16T00:15:32;100266.40;;;13.31;84.80
54600;BME280;40500;51.084;16.958;2022-10-16T00:18:05;100265.90;;;13.30;84.89
54600;BME280;40500;51.084;16.958;2022-10-16T00:20:36;100265.92;;;13.29;84.93
54600;BME280;40500;51.084;16.958;2022-10-16T00:23:06;100267.68;;;13.28;85.02
54600;BME280;40500;51.084;16.958;2022-10-16T00:25:37;100264.52;;;13.29;84.94
54600;BME280;40500;51.084;16.958;2022-10-16T00:28:07;100264.70;;;13.28;84.94
54600;BME280;40500;51.084;16.958;2022-10-16T00:30:40;100258.89;;;13.28;85.04
54600;BME280;40500;51.084;16.958;2022-10-16T00:33:10;100256.79;;;13.28;85.03
54600;BME280;40500;51.084;16.958;2022-10-16T00:35:41;100259.06;;;13.28;85.15
54600;BME280;40500;51.084;16.958;2022-10-16T00:38:11;100262.77;;;13.28;85.04
54600;BME280;40500;51.084;16.958;2022-10-16T00:40:42;100262.05;;;13.28;85.05
54600;BME280;40500;51.084;16.958;2022-10-16T00:47:29;100259.86;;;13.32;85.14
54600;BME280;40500;51.084;16.958;2022-10-16T00:50:04;100264.48;;;13.31;85.21
54600;BME280;40500;51.084;16.958;2022-10-16T00:52:34;100259.40;;;13.30;85.27
54600;BME280;40500;51.084;16.958;2022-10-16T00:55:06;100265.20;;;13.30;85.30
54600;BME280;40500;51.084;16.958;2022-10-16T00:57:36;100269.80;;;13.28;85.25
54600;BME280;40500;51.084;16.958;2022-10-16T03:01:00;100302.33;;;12.97;86.14
54600;BME280;40500;51.084;16.958;2022-10-16T03:03:31;100310.27;;;12.96;86.23
54600;BME280;40500;51.084;16.958;2022-10-16T03:07:14;100305.56;;;13.00;86.09
54600;BME280;40500;51.084;16.958;2022-10-16T03:09:45;100313.14;;;13.00;86.18
54600;BME280;40500;51.084;16.958;2022-10-16T03:12:15;100322.76;;;13.01;86.13
54600;BME280;40500;51.084;16.958;2022-10-16T03:14:46;100323.08;;;13.03;86.25
54600;BME280;40500;51.084;16.958;2022-10-16T03:18:56;100320.15;;;13.07;86.32
54600;BME280;40500;51.084;16.958;2022-10-16T03:21:26;100316.85;;;13.06;86.30
54600;BME280;40500;51.084;16.958;2022-10-16T03:23:57;100314.70;;;13.07;86.31
54600;BME280;40500;51.084;16.958;2022-10-16T03:26:27;100315.90;;;13.09;86.40
54600;BME280;40500;51.084;16.958;2022-10-16T03:28:57;100318.35;;;13.09;86.44
54600;BME280;40500;51.084;16.958;2022-10-16T03:31:28;100319.58;;;13.09;86.49
54600;BME280;40500;51.084;16.958;2022-10-16T03:34:00;100330.79;;;13.11;86.64
54600;BME280;40500;51.084;16.958;2022-10-16T03:36:30;100323.90;;;13.11;86.69
54600;BME280;40500;51.084;16.958;2022-10-16T03:39:01;100327.27;;;13.11;86.70
54600;BME280;40500;51.084;16.958;2022-10-16T03:41:33;100330.95;;;13.11;86.71
54600;BME280;40500;51.084;16.958;2022-10-16T03:44:03;100335.02;;;13.10;86.77
54600;BME280;40500;51.084;16.958;2022-10-16T03:46:34;100339.44;;;13.09;86.77
54600;BME280;40500;51.084;16.958;2022-10-16T03:49:05;100339.98;;;13.08;86.88
54600;BME280;40500;51.084;16.958;2022-10-16T03:51:40;100335.27;;;13.07;86.90
54600;BME280;40500;51.084;16.958;2022-10-16T03:57:17;100337.16;;;13.09;86.94
54600;BME280;40500;51.084;16.958;2022-10-16T03:59:45;100336.63;;;13.09;86.95
54600;BME280;40500;51.084;16.958;2022-10-16T04:02:13;100341.89;;;13.10;87.03
54600;BME280;40500;51.084;16.958;2022-10-16T04:04:41;100342.91;;;13.11;87.09
54600;BME280;40500;51.084;16.958;2022-10-16T04:07:09;100342.38;;;13.11;87.14
54600;BME280;40500;51.084;16.958;2022-10-16T04:09:38;100343.41;;;13.12;87.21
54600;BME280;40500;51.084;16.958;2022-10-16T04:12:06;100350.98;;;13.12;87.23
54600;BME280;40500;51.084;16.958;2022-10-16T04:14:54;100353.70;;;13.14;87.27
54600;BME280;40500;51.084;16.958;2022-10-16T04:17:25;100364.66;;;13.13;87.29
54600;BME280;40500;51.084;16.958;2022-10-16T04:19:56;100355.20;;;13.11;87.34
54600;BME280;40500;51.084;16.958;2022-10-16T04:22:27;100355.41;;;13.10;87.34
54600;BME280;40500;51.084;16.958;2022-10-16T04:24:59;100357.74;;;13.08;87.33
54600;BME280;40500;51.084;16.958;2022-10-16T04:27:30;100355.69;;;13.06;87.32
54600;BME280;40500;51.084;16.958;2022-10-16T04:30:00;100356.46;;;13.03;87.35
54600;BME280;40500;51.084;16.958;2022-10-16T04:32:31;100361.45;;;13.00;87.38
54600;BME280;40500;51.084;16.958;2022-10-16T04:35:06;100362.09;;;12.97;87.32
54600;BME280;40500;51.084;16.958;2022-10-16T04:37:37;100370.23;;;12.95;87.41
54600;BME280;40500;51.084;16.958;2022-10-16T04:40:08;100374.18;;;12.91;87.36
54600;BME280;40500;51.084;16.958;2022-10-16T04:42:39;100375.31;;;12.88;87.44
54600;BME280;40500;51.084;16.958;2022-10-16T04:45:10;100377.84;;;12.86;87.41
54600;BME280;40500;51.084;16.958;2022-10-16T04:47:46;100379.11;;;12.84;87.44
54600;BME280;40500;51.084;16.958;2022-10-16T04:50:17;100378.46;;;12.82;87.52
54600;BME280;40500;51.084;16.958;2022-10-16T04:52:47;100374.64;;;12.80;87.55
54600;BME280;40500;51.084;16.958;2022-10-16T04:55:18;100373.30;;;12.78;87.52
54600;BME280;40500;51.084;16.958;2022-10-16T04:57:48;100368.62;;;12.75;87.52
54600;BME280;40500;51.084;16.958;2022-10-16T05:00:21;100373.23;;;12.73;87.36
54600;BME280;40500;51.084;16.958;2022-10-16T05:02:52;100372.23;;;12.72;87.62
54600;BME280;40500;51.084;16.958;2022-10-16T05:05:22;100372.61;;;12.71;87.60
54600;BME280;40500;51.084;16.958;2022-10-16T05:07:53;100371.40;;;12.70;87.59
54600;BME280;40500;51.084;16.958;2022-10-16T05:10:23;100374.20;;;12.70;87.70
54600;BME280;40500;51.084;16.958;2022-10-16T05:12:54;100380.52;;;12.71;87.80
54600;BME280;40500;51.084;16.958;2022-10-16T05:15:24;100384.71;;;12.71;87.84
54600;BME280;40500;51.084;16.958;2022-10-16T05:17:55;100389.77;;;12.73;87.85
54600;BME280;40500;51.084;16.958;2022-10-16T05:20:26;100388.34;;;12.74;87.91
54600;BME280;40500;51.084;16.958;2022-10-16T05:22:56;100388.14;;;12.74;87.89
54600;BME280;40500;51.084;16.958;2022-10-16T05:25:30;100383.93;;;12.74;87.96
54600;BME280;40500;51.084;16.958;2022-10-16T05:28:01;100384.98;;;12.74;88.17
54600;BME280;40500;51.084;16.958;2022-10-16T05:30:32;100385.85;;;12.75;87.98
54600;BME280;40500;51.084;16.958;2022-10-16T05:33:03;100386.90;;;12.75;88.06
54600;BME280;40500;51.084;16.958;2022-10-16T05:35:35;100390.55;;;12.77;88.14
54600;BME280;40500;51.084;16.958;2022-10-16T05:38:10;100393.13;;;12.79;88.18
54600;BME280;40500;51.084;16.958;2022-10-16T05:40:42;100396.48;;;12.79;88.16
54600;BME280;40500;51.084;16.958;2022-10-16T06:44:47;100453.80;;;13.83;88.38
54600;BME280;40500;51.084;16.958;2022-10-16T06:47:18;100459.14;;;13.90;88.39
54600;BME280;40500;51.084;16.958;2022-10-16T06:49:50;100467.25;;;13.95;88.28
54600;BME280;40500;51.084;16.958;2022-10-16T06:52:23;100473.45;;;14.00;88.19
54600;BME280;40500;51.084;16.958;2022-10-16T06:54:54;100474.02;;;14.05;88.17
54600;BME280;40500;51.084;16.958;2022-10-16T06:57:25;100479.50;;;14.10;88.21
54600;BME280;40500;51.084;16.958;2022-10-16T06:59:55;100483.44;;;14.14;87.99
54600;BME280;40500;51.084;16.958;2022-10-16T07:02:27;100484.91;;;14.17;88.07
54600;BME280;40500;51.084;16.958;2022-10-16T07:05:00;100481.63;;;14.21;87.97
54600;BME280;40500;51.084;16.958;2022-10-16T07:07:31;100482.07;;;14.24;88.03
54600;BME280;40500;51.084;16.958;2022-10-16T07:10:02;100485.52;;;14.27;87.92
54600;BME280;40500;51.084;16.958;2022-10-16T07:12:32;100490.35;;;14.30;87.75
54600;BME280;40500;51.084;16.958;2022-10-16T07:15:03;100497.32;;;14.33;87.75
54600;BME280;40500;51.084;16.958;2022-10-16T07:17:35;100496.69;;;14.36;87.67
54600;BME280;40500;51.084;16.958;2022-10-16T07:20:06;100490.92;;;14.40;87.64
54600;BME280;40500;51.084;16.958;2022-10-16T07:22:36;100493.80;;;14.44;87.69
54600;BME280;40500;51.084;16.958;2022-10-16T07:25:08;100495.44;;;14.48;87.58
54600;BME280;40500;51.084;16.958;2022-10-16T07:27:39;100496.19;;;14.53;87.61
54600;BME280;40500;51.084;16.958;2022-10-16T07:30:10;100492.55;;;14.57;87.63
54600;BME280;40500;51.084;16.958;2022-10-16T07:32:41;100496.08;;;14.63;87.58
54600;BME280;40500;51.084;16.958;2022-10-16T07:35:11;100495.57;;;14.68;87.54
54600;BME280;40500;51.084;16.958;2022-10-16T07:37:45;100494.86;;;14.74;87.52
54600;BME280;40500;51.084;16.958;2022-10-16T07:42:06;100503.62;;;14.87;87.47
54600;BME280;40500;51.084;16.958;2022-10-16T07:44:35;100501.16;;;14.92;87.35
54600;BME280;40500;51.084;16.958;2022-10-16T07:47:03;100502.58;;;14.97;87.27
54600;BME280;40500;51.084;16.958;2022-10-16T07:49:31;100499.55;;;15.03;87.25
54600;BME280;40500;51.084;16.958;2022-10-16T07:51:59;100500.90;;;15.11;87.08
54600;BME280;40500;51.084;16.958;2022-10-16T07:54:26;100498.36;;;15.18;86.97
54600;BME280;40500;51.084;16.958;2022-10-16T07:56:54;100501.64;;;15.26;86.94
54600;BME280;40500;51.084;16.958;2022-10-16T07:59:22;100498.73;;;15.33;86.83
54600;BME280;40500;51.084;16.958;2022-10-16T08:01:50;100498.61;;;15.41;86.72
54600;BME280;40500;51.084;16.958;2022-10-16T08:04:17;100503.12;;;15.50;86.55
54600;BME280;40500;51.084;16.958;2022-10-16T08:06:45;100507.26;;;15.57;86.44
54600;BME280;40500;51.084;16.958;2022-10-16T08:09:12;100516.34;;;15.65;86.35
54600;BME280;40500;51.084;16.958;2022-10-16T08:11:40;100520.17;;;15.72;86.20
54600;BME280;40500;51.084;16.958;2022-10-16T08:14:07;100517.66;;;15.78;86.05
54600;BME280;40500;51.084;16.958;2022-10-16T08:16:35;100519.75;;;15.85;85.89
54600;BME280;40500;51.084;16.958;2022-10-16T08:19:02;100525.95;;;15.89;85.84
54600;BME280;40500;51.084;16.958;2022-10-16T08:21:30;100523.73;;;15.92;85.62
54600;BME280;40500;51.084;16.958;2022-10-16T08:23:57;100523.60;;;15.95;85.40
54600;BME280;40500;51.084;16.958;2022-10-16T08:26:26;100526.52;;;15.98;85.28
54600;BME280;40500;51.084;16.958;2022-10-16T08:28:54;100523.15;;;16.03;85.00
54600;BME280;40500;51.084;16.958;2022-10-16T08:31:23;100516.46;;;16.07;84.82
54600;BME280;40500;51.084;16.958;2022-10-16T08:33:50;100517.50;;;16.13;84.61
54600;BME280;40500;51.084;16.958;2022-10-16T08:36:19;100520.22;;;16.20;84.57
54600;BME280;40500;51.084;16.958;2022-10-16T08:38:49;100526.13;;;16.28;84.37
54600;BME280;40500;51.084;16.958;2022-10-16T08:41:47;100531.35;;;16.34;84.23
54600;BME280;40500;51.084;16.958;2022-10-16T08:44:33;100534.56;;;16.43;83.99
54600;BME280;40500;51.084;16.958;2022-10-16T08:47:09;100543.09;;;16.51;83.99
54600;BME280;40500;51.084;16.958;2022-10-16T08:49:42;100546.19;;;16.58;83.70
54600;BME280;40500;51.084;16.958;2022-10-16T08:52:12;100545.89;;;16.66;83.49
54600;BME280;40500;51.084;16.958;2022-10-16T08:54:44;100548.55;;;16.74;83.36
54600;BME280;40500;51.084;16.958;2022-10-16T08:57:17;100550.89;;;16.83;83.25
54600;BME280;40500;51.084;16.958;2022-10-16T08:59:52;100553.19;;;16.92;83.12
54600;BME280;40500;51.084;16.958;2022-10-16T09:02:26;100553.90;;;17.01;82.85
54600;BME280;40500;51.084;16.958;2022-10-16T09:05:03;100551.24;;;17.10;82.58
54600;BME280;40500;51.084;16.958;2022-10-16T09:07:45;100550.54;;;17.19;82.26
54600;BME280;40500;51.084;16.958;2022-10-16T09:10:17;100551.58;;;17.27;82.08
54600;BME280;40500;51.084;16.958;2022-10-16T09:12:54;100554.39;;;17.32;81.79
54600;BME280;40500;51.084;16.958;2022-10-16T09:15:26;100554.64;;;17.39;81.60
54600;BME280;40500;51.084;16.958;2022-10-16T09:18:03;100556.52;;;17.45;81.43
54600;BME280;40500;51.084;16.958;2022-10-16T09:20:44;100555.91;;;17.55;81.24
54600;BME280;40500;51.084;16.958;2022-10-16T09:23:17;100552.38;;;17.64;80.96
54600;BME280;40500;51.084;16.958;2022-10-16T09:25:48;100557.48;;;17.72;80.64
54600;BME280;40500;51.084;16.958;2022-10-16T09:28:16;100561.51;;;17.82;80.16
54600;BME280;40500;51.084;16.958;2022-10-16T09:30:45;100562.52;;;17.92;79.75
54600;BME280;40500;51.084;16.958;2022-10-16T09:33:13;100560.23;;;18.04;79.33
54600;BME280;40500;51.084;16.958;2022-10-16T09:35:44;100561.81;;;18.16;79.02
54600;BME280;40500;51.084;16.958;2022-10-16T09:40:39;100561.48;;;18.43;78.17
54600;BME280;40500;51.084;16.958;2022-10-16T09:43:21;100560.89;;;18.48;77.71
54600;BME280;40500;51.084;16.958;2022-10-16T09:45:57;100556.40;;;18.53;77.28
54600;BME280;40500;51.084;16.958;2022-10-16T09:48:31;100551.63;;;18.56;77.07
54600;BME280;40500;51.084;16.958;2022-10-16T09:51:03;100551.91;;;18.58;76.91
54600;BME280;40500;51.084;16.958;2022-10-16T09:53:41;100551.83;;;18.60;76.59
54600;BME280;40500;51.084;16.958;2022-10-16T09:56:11;100545.70;;;18.62;76.46
54600;BME280;40500;51.084;16.958;2022-10-16T09:58:49;100549.94;;;18.63;76.27
54600;BME280;40500;51.084;16.958;2022-10-16T10:01:16;100551.98;;;18.60;75.95
54600;BME280;40500;51.084;16.958;2022-10-16T10:03:44;100553.41;;;18.56;75.61
54600;BME280;40500;51.084;16.958;2022-10-16T10:06:19;100547.16;;;18.53;75.45
54600;BME280;40500;51.084;16.958;2022-10-16T10:08:57;100551.02;;;18.51;75.43
54600;BME280;40500;51.084;16.958;2022-10-16T10:11:39;100553.23;;;18.49;75.34
54600;BME280;40500;51.084;16.958;2022-10-16T10:14:16;100559.23;;;18.45;75.18
54600;BME280;40500;51.084;16.958;2022-10-16T10:16:44;100558.05;;;18.45;75.10
54600;BME280;40500;51.084;16.958;2022-10-16T10:19:15;100559.48;;;18.44;75.11
54600;BME280;40500;51.084;16.958;2022-10-16T10:21:43;100555.83;;;18.43;75.25
54600;BME280;40500;51.084;16.958;2022-10-16T10:24:13;100562.05;;;18.42;75.07
54600;BME280;40500;51.084;16.958;2022-10-16T10:26:47;100562.27;;;18.41;75.00
54600;BME280;40500;51.084;16.958;2022-10-16T10:29:22;100558.36;;;18.42;74.90
54600;BME280;40500;51.084;16.958;2022-10-16T10:32:00;100557.33;;;18.45;74.89
54600;BME280;40500;51.084;16.958;2022-10-16T10:34:43;100566.47;;;18.50;74.79
54600;BME280;40500;51.084;16.958;2022-10-16T10:37:33;100557.75;;;18.58;74.50
54600;BME280;40500;51.084;16.958;2022-10-16T10:40:11;100557.43;;;18.69;74.14
54600;BME280;40500;51.084;16.958;2022-10-16T10:42:47;100553.77;;;18.79;73.71
54600;BME280;40500;51.084;16.958;2022-10-16T10:45:25;100550.19;;;18.88;73.63
54600;BME280;40500;51.084;16.958;2022-10-16T10:48:23;100544.28;;;18.96;73.16
54600;BME280;40500;51.084;16.958;2022-10-16T10:50:56;100545.42;;;19.06;72.79
54600;BME280;40500;51.084;16.958;2022-10-16T10:53:35;100546.22;;;19.15;72.68
54600;BME280;40500;51.084;16.958;2022-10-16T10:56:16;100548.79;;;19.24;72.38
54600;BME280;40500;51.084;16.958;2022-10-16T10:59:13;100551.80;;;19.34;71.89
54600;BME280;40500;51.084;16.958;2022-10-16T11:01:52;100553.27;;;19.45;71.56
54600;BME280;40500;51.084;16.958;2022-10-16T11:04:35;100547.52;;;19.53;71.34
54600;BME280;40500;51.084;16.958;2022-10-16T11:07:17;100544.59;;;19.58;71.14
54600;BME280;40500;51.084;16.958;2022-10-16T11:09:53;100543.88;;;19.65;70.88
54600;BME280;40500;51.084;16.958;2022-10-16T11:12:29;100537.84;;;19.68;70.70
54600;BME280;40500;51.084;16.958;2022-10-16T11:15:07;100541.32;;;19.70;70.55
54600;BME280;40500;51.084;16.958;2022-10-16T11:17:44;100540.58;;;19.74;70.54
54600;BME280;40500;51.084;16.958;2022-10-16T11:20:21;100536.88;;;19.81;70.25
54600;BME280;40500;51.084;16.958;2022-10-16T11:22:56;100529.91;;;19.85;70.00
54600;BME280;40500;51.084;16.958;2022-10-16T11:25:29;100529.58;;;19.91;69.88
54600;BME280;40500;51.084;16.958;2022-10-16T11:28:03;100526.48;;;19.99;69.70
54600;BME280;40500;51.084;16.958;2022-10-16T11:30:42;100529.44;;;20.07;69.50
54600;BME280;40500;51.084;16.958;2022-10-16T11:33:27;100534.09;;;20.17;69.05
54600;BME280;40500;51.084;16.958;2022-10-16T11:36:06;100532.95;;;20.25;68.62
54600;BME280;40500;51.084;16.958;2022-10-16T11:38:43;100528.98;;;20.36;68.18
54600;BME280;40500;51.084;16.958;2022-10-16T11:41:20;100530.42;;;20.51;68.01
54600;BME280;40500;51.084;16.958;2022-10-16T11:44:00;100531.42;;;20.66;67.60
54600;BME280;40500;51.084;16.958;2022-10-16T11:46:36;100533.85;;;20.77;67.40
54600;BME280;40500;51.084;16.958;2022-10-16T11:49:32;100525.30;;;20.83;66.63
54600;BME280;40500;51.084;16.958;2022-10-16T11:52:08;100512.34;;;20.92;66.48
54600;BME280;40500;51.084;16.958;2022-10-16T11:54:51;100529.52;;;20.97;66.32
54600;BME280;40500;51.084;16.958;2022-10-16T11:57:28;100526.63;;;20.94;66.06
54600;BME280;40500;51.084;16.958;2022-10-16T12:00:03;100524.44;;;20.92;65.73
54600;BME280;40500;51.084;16.958;2022-10-16T12:02:44;100515.15;;;20.89;65.78
54600;BME280;40500;51.084;16.958;2022-10-16T12:05:25;100514.09;;;20.86;65.72
54600;BME280;40500;51.084;16.958;2022-10-16T12:08:06;100528.14;;;20.83;65.69
54600;BME280;40500;51.084;16.958;2022-10-16T12:10:39;100542.73;;;20.80;65.59
54600;BME280;40500;51.084;16.958;2022-10-16T12:13:31;100543.46;;;20.80;65.68
54600;BME280;40500;51.084;16.958;2022-10-16T12:16:22;100549.13;;;20.77;65.78
54600;BME280;40500;51.084;16.958;2022-10-16T12:19:11;100557.94;;;20.72;65.81
54600;BME280;40500;51.084;16.958;2022-10-16T12:21:44;100561.92;;;20.68;65.96
54600;BME280;40500;51.084;16.958;2022-10-16T12:24:27;100564.36;;;20.63;65.78
54600;BME280;40500;51.084;16.958;2022-10-16T12:26:59;100565.38;;;20.57;65.90
54600;BME280;40500;51.084;16.958;2022-10-16T12:29:35;100569.02;;;20.51;65.81
54600;BME280;40500;51.084;16.958;2022-10-16T12:32:20;100572.75;;;20.48;66.07
54600;BME280;40500;51.084;16.958;2022-10-16T12:35:20;100572.77;;;20.45;66.12
54600;BME280;40500;51.084;16.958;2022-10-16T12:37:52;100577.52;;;20.42;66.18
54600;BME280;40500;51.084;16.958;2022-10-16T12:40:29;100578.82;;;20.41;66.15
54600;BME280;40500;51.084;16.958;2022-10-16T12:43:10;100583.03;;;20.43;66.20
54600;BME280;40500;51.084;16.958;2022-10-16T12:45:40;100585.15;;;20.46;66.31
54600;BME280;40500;51.084;16.958;2022-10-16T12:48:21;100591.03;;;20.49;66.35
54600;BME280;40500;51.084;16.958;2022-10-16T12:51:24;100595.35;;;20.52;66.28
54600;BME280;40500;51.084;16.958;2022-10-16T12:54:02;100588.44;;;20.58;66.27
54600;BME280;40500;51.084;16.958;2022-10-16T12:56:46;100592.96;;;20.63;66.53
54600;BME280;40500;51.084;16.958;2022-10-16T12:59:21;100587.41;;;20.67;66.57
54600;BME280;40500;51.084;16.958;2022-10-16T13:02:15;100591.91;;;20.70;66.41
54600;BME280;40500;51.084;16.958;2022-10-16T13:05:02;100591.42;;;20.72;66.21
54600;BME280;40500;51.084;16.958;2022-10-16T13:07:50;100592.80;;;20.73;66.11
54600;BME280;40500;51.084;16.958;2022-10-16T13:10:26;100598.38;;;20.72;65.83
54600;BME280;40500;51.084;16.958;2022-10-16T13:13:22;100593.20;;;20.69;65.82
54600;BME280;40500;51.084;16.958;2022-10-16T13:16:08;100593.55;;;20.66;65.81
54600;BME280;40500;51.084;16.958;2022-10-16T13:18:47;100595.48;;;20.66;65.80
54600;BME280;40500;51.084;16.958;2022-10-16T13:21:35;100599.76;;;20.69;65.61
54600;BME280;40500;51.084;16.958;2022-10-16T13:24:14;100608.77;;;20.74;65.56
54600;BME280;40500;51.084;16.958;2022-10-16T13:26:55;100608.42;;;20.77;65.31
54600;BME280;40500;51.084;16.958;2022-10-16T13:29:32;100604.86;;;20.83;65.45
54600;BME280;40500;51.084;16.958;2022-10-16T13:32:09;100596.68;;;20.89;65.22
54600;BME280;40500;51.084;16.958;2022-10-16T13:34:47;100595.61;;;20.92;65.25
54600;BME280;40500;51.084;16.958;2022-10-16T13:37:21;100595.86;;;20.95;65.12
54600;BME280;40500;51.084;16.958;2022-10-16T13:40:01;100599.77;;;20.94;64.96
54600;BME280;40500;51.084;16.958;2022-10-16T13:42:32;100604.79;;;20.98;65.04
54600;BME280;40500;51.084;16.958;2022-10-16T13:45:02;100606.83;;;21.02;65.00
54600;BME280;40500;51.084;16.958;2022-10-16T13:47:33;100611.63;;;21.09;65.04
54600;BME280;40500;51.084;16.958;2022-10-16T13:50:05;100611.38;;;21.16;64.97
54600;BME280;40500;51.084;16.958;2022-10-16T13:52:36;100612.53;;;21.24;64.83
54600;BME280;40500;51.084;16.958;2022-10-16T13:55:12;100614.58;;;21.31;64.78
54600;BME280;40500;51.084;16.958;2022-10-16T13:57:42;100611.80;;;21.34;64.81
54600;BME280;40500;51.084;16.958;2022-10-16T14:00:25;100618.98;;;21.32;64.83
54600;BME280;40500;51.084;16.958;2022-10-16T14:03:03;100620.69;;;21.31;64.76
54600;BME280;40500;51.084;16.958;2022-10-16T14:05:34;100630.38;;;21.29;64.85
54600;BME280;40500;51.084;16.958;2022-10-16T14:08:04;100634.31;;;21.29;64.82
54600;BME280;40500;51.084;16.958;2022-10-16T14:10:35;100639.67;;;21.29;64.70
54600;BME280;40500;51.084;16.958;2022-10-16T14:13:07;100644.05;;;21.27;64.63
54600;BME280;40500;51.084;16.958;2022-10-16T14:15:48;100641.45;;;21.26;64.59
54600;BME280;40500;51.084;16.958;2022-10-16T14:18:23;100640.14;;;21.24;64.52
54600;BME280;40500;51.084;16.958;2022-10-16T14:21:04;100638.17;;;21.21;64.54
54600;BME280;40500;51.084;16.958;2022-10-16T14:23:36;100636.82;;;21.17;64.50
54600;BME280;40500;51.084;16.958;2022-10-16T14:26:19;100637.17;;;21.14;64.68
54600;BME280;40500;51.084;16.958;2022-10-16T14:29:02;100636.91;;;21.12;64.63
54600;BME280;40500;51.084;16.958;2022-10-16T14:31:34;100633.77;;;21.11;64.53
54600;BME280;40500;51.084;16.958;2022-10-16T14:36:49;100637.82;;;21.15;64.68
54600;BME280;40500;51.084;16.958;2022-10-16T14:39:22;100642.13;;;21.14;64.74
54600;BME280;40500;51.084;16.958;2022-10-16T14:41:55;100638.39;;;21.11;64.70
54600;BME280;40500;51.084;16.958;2022-10-16T14:44:29;100638.74;;;21.08;64.53
54600;BME280;40500;51.084;16.958;2022-10-16T14:47:08;100645.67;;;21.05;64.69
54600;BME280;40500;51.084;16.958;2022-10-16T14:49:42;100648.89;;;21.02;64.62
54600;BME280;40500;51.084;16.958;2022-10-16T14:52:13;100650.85;;;20.98;64.60
54600;BME280;40500;51.084;16.958;2022-10-16T14:54:46;100652.05;;;20.96;64.72
54600;BME280;40500;51.084;16.958;2022-10-16T14:57:19;100654.80;;;20.94;64.81
54600;BME280;40500;51.084;16.958;2022-10-16T14:59:51;100656.88;;;20.92;64.91
54600;BME280;40500;51.084;16.958;2022-10-16T15:02:27;100659.61;;;20.91;64.79
54600;BME280;40500;51.084;16.958;2022-10-16T15:04:58;100660.58;;;20.89;64.85
54600;BME280;40500;51.084;16.958;2022-10-16T15:07:35;100656.81;;;20.86;64.82
54600;BME280;40500;51.084;16.958;2022-10-16T15:10:06;100656.86;;;20.83;64.89
54600;BME280;40500;51.084;16.958;2022-10-16T15:12:36;100660.14;;;20.78;64.89
54600;BME280;40500;51.084;16.958;2022-10-16T15:15:25;100661.71;;;20.72;65.02
54600;BME280;40500;51.084;16.958;2022-10-16T15:17:57;100668.73;;;20.67;65.05
54600;BME280;40500;51.084;16.958;2022-10-16T15:20:32;100669.63;;;20.64;65.26
54600;BME280;40500;51.084;16.958;2022-10-16T15:23:04;100667.16;;;20.60;65.16
54600;BME280;40500;51.084;16.958;2022-10-16T15:25:38;100666.65;;;20.55;65.34
54600;BME280;40500;51.084;16.958;2022-10-16T15:28:10;100667.30;;;20.50;65.31
54600;BME280;40500;51.084;16.958;2022-10-16T15:30:42;100665.08;;;20.45;65.54
54600;BME280;40500;51.084;16.958;2022-10-16T15:33:15;100665.75;;;20.39;65.70
54600;BME280;40500;51.084;16.958;2022-10-16T15:35:48;100667.63;;;20.34;65.71
54600;BME280;40500;51.084;16.958;2022-10-16T15:38:20;100668.27;;;20.28;65.77
54600;BME280;40500;51.084;16.958;2022-10-16T15:40:51;100670.15;;;20.23;65.84
54600;BME280;40500;51.084;16.958;2022-10-16T15:43:22;100665.09;;;20.17;66.09
54600;BME280;40500;51.084;16.958;2022-10-16T15:46:02;100670.23;;;20.10;66.16
54600;BME280;40500;51.084;16.958;2022-10-16T15:48:33;100676.05;;;20.05;66.35
54600;BME280;40500;51.084;16.958;2022-10-16T15:51:06;100683.18;;;20.01;66.43
54600;BME280;40500;51.084;16.958;2022-10-16T15:53:36;100689.15;;;19.95;66.60
54600;BME280;40500;51.084;16.958;2022-10-16T15:56:08;100690.81;;;19.90;66.63
54600;BME280;40500;51.084;16.958;2022-10-16T15:58:39;100696.39;;;19.86;66.65
54600;BME280;40500;51.084;16.958;2022-10-16T16:01:10;100697.35;;;19.81;66.90
54600;BME280;40500;51.084;16.958;2022-10-16T16:03:40;100697.83;;;19.74;66.99
54600;BME280;40500;51.084;16.958;2022-10-16T16:06:12;100703.01;;;19.69;67.13
54600;BME280;40500;51.084;16.958;2022-10-16T16:08:43;100709.06;;;19.66;67.33
54600;BME280;40500;51.084;16.958;2022-10-16T16:11:16;100708.77;;;19.61;67.33
54600;BME280;40500;51.084;16.958;2022-10-16T16:13:46;100715.15;;;19.57;67.51
54600;BME280;40500;51.084;16.958;2022-10-16T16:16:17;100718.56;;;19.53;67.57
54600;BME280;40500;51.084;16.958;2022-10-16T16:18:50;100722.05;;;19.47;67.71
54600;BME280;40500;51.084;16.958;2022-10-16T16:21:22;100730.29;;;19.42;67.78
54600;BME280;40500;51.084;16.958;2022-10-16T16:23:52;100731.12;;;19.35;67.97
54600;BME280;40500;51.084;16.958;2022-10-16T16:26:25;100735.74;;;19.31;68.02
54600;BME280;40500;51.084;16.958;2022-10-16T16:28:56;100734.91;;;19.26;68.21
54600;BME280;40500;51.084;16.958;2022-10-16T16:31:27;100737.48;;;19.21;68.40
54600;BME280;40500;51.084;16.958;2022-10-16T16:33:58;100746.03;;;19.16;68.58